sensor_id;sensor_type;location;lat;lon;timestamp;P1;durP1;ratioP1;P2;durP2;ratioP2
72109;SDS011;59983;52.010;5.420;2022-11-21T00:01:16;47.53;;;30.83;;
72109;SDS011;59983;52.010;5.420;2022-11-21T00:03:47;45.97;;;30.50;;
72109;SDS011;59983;52.010;5.420;2022-11-21T00:06:15;45.37;;;29.07;;
72109;SDS011;59983;52.010;5.420;2022-11-21T00:08:42;50.22;;;31.50;;
72109;SDS011;59983;52.010;5.420;2022-11-21T00:11:09;46.65;;;30.65;;
72109;SDS011;59983;52.010;5.420;2022-11-21T00:13:36;48.92;;;29.80;;
72109;SDS011;59983;52.010;5.420;2022-11-21T00:16:03;50.63;;;31.67;;
72109;SDS011;59983;52.010;5.420;2022-11-21T00:18:31;46.30;;;30.43;;
72109;SDS011;59983;52.010;5.420;2022-11-21T00:21:03;49.38;;;30.48;;
72109;SDS011;59983;52.010;5.420;2022-11-21T00:23:32;50.75;;;31.20;;
72109;SDS011;59983;52.010;5.420;2022-11-21T00:26:02;46.63;;;30.63;;
72109;SDS011;59983;52.010;5.420;2022-11-21T00:28:30;43.90;;;28.58;;
72109;SDS011;59983;52.010;5.420;2022-11-21T00:30:56;44.07;;;27.60;;
72109;SDS011;59983;52.010;5.420;2022-11-21T00:33:23;46.20;;;28.92;;
72109;SDS011;59983;52.010;5.420;2022-11-21T00:35:49;51.47;;;30.77;;
72109;SDS011;59983;52.010;5.420;2022-11-21T00:38:16;48.00;;;30.60;;
72109;SDS011;59983;52.010;5.420;2022-11-21T00:40:42;48.50;;;31.05;;
72109;SDS011;59983;52.010;5.420;2022-11-21T00:43:09;50.90;;;30.07;;
72109;SDS011;59983;52.010;5.420;2022-11-21T00:45:35;57.83;;;32.70;;
72109;SDS011;59983;52.010;5.420;2022-11-21T00:48:02;49.88;;;30.92;;
72109;SDS011;59983;52.010;5.420;2022-11-21T00:50:29;48.28;;;29.48;;
72109;SDS011;59983;52.010;5.420;2022-11-21T00:52:55;49.05;;;31.25;;
72109;SDS011;59983;52.010;5.420;2022-11-21T00:55:23;51.20;;;31.10;;
72109;SDS011;59983;52.010;5.420;2022-11-21T00:57:50;54.00;;;31.10;;
72109;SDS011;59983;52.010;5.420;2022-11-21T01:00:17;53.40;;;30.08;;
72109;SDS011;59983;52.010;5.420;2022-11-21T01:02:43;48.55;;;30.20;;
72109;SDS011;59983;52.010;5.420;2022-11-21T01:05:10;49.58;;;30.98;;
72109;SDS011;59983;52.010;5.420;2022-11-21T01:07:36;52.53;;;31.03;;
72109;SDS011;59983;52.010;5.420;2022-11-21T01:10:03;50.88;;;29.63;;
72109;SDS011;59983;52.010;5.420;2022-11-21T01:12:30;52.10;;;31.00;;
72109;SDS011;59983;52.010;5.420;2022-11-21T01:14:56;48.65;;;29.02;;
72109;SDS011;59983;52.010;5.420;2022-11-21T01:17:23;54.50;;;31.23;;
72109;SDS011;59983;52.010;5.420;2022-11-21T01:19:49;49.63;;;28.93;;
72109;SDS011;59983;52.010;5.420;2022-11-21T01:22:16;47.60;;;28.45;;
72109;SDS011;59983;52.010;5.420;2022-11-21T01:24:42;52.83;;;30.67;;
72109;SDS011;59983;52.010;5.420;2022-11-21T01:27:08;51.28;;;30.30;;
72109;SDS011;59983;52.010;5.420;2022-11-21T01:29:35;59.03;;;30.48;;
72109;SDS011;59983;52.010;5.420;2022-11-21T01:32:01;52.13;;;29.10;;
72109;SDS011;59983;52.010;5.420;2022-11-21T01:34:28;50.10;;;30.98;;
72109;SDS011;59983;52.010;5.420;2022-11-21T01:36:55;50.10;;;31.27;;
72109;SDS011;59983;52.010;5.420;2022-11-21T01:39:21;52.55;;;31.33;;
72109;SDS011;59983;52.010;5.420;2022-11-21T01:41:48;52.58;;;30.60;;
72109;SDS011;59983;52.010;5.420;2022-11-21T01:44:18;57.40;;;32.47;;
72109;SDS011;59983;52.010;5.420;2022-11-21T01:46:47;48.22;;;28.77;;
72109;SDS011;59983;52.010;5.420;2022-11-21T01:54:29;53.30;;;29.05;;
72109;SDS011;59983;52.010;5.420;2022-11-21T01:57:02;51.13;;;28.30;;
72109;SDS011;59983;52.010;5.420;2022-11-21T02:02:10;53.05;;;27.50;;
72109;SDS011;59983;52.010;5.420;2022-11-21T02:04:41;44.55;;;27.45;;
72109;SDS011;59983;52.010;5.420;2022-11-21T02:07:09;47.60;;;28.10;;
72109;SDS011;59983;52.010;5.420;2022-11-21T02:09:39;47.20;;;27.10;;
72109;SDS011;59983;52.010;5.420;2022-11-21T02:12:10;42.85;;;24.80;;
72109;SDS011;59983;52.010;5.420;2022-11-21T02:14:41;47.03;;;29.38;;
72109;SDS011;59983;52.010;5.420;2022-11-21T02:17:09;47.95;;;26.92;;
72109;SDS011;59983;52.010;5.420;2022-11-21T02:19:40;51.70;;;29.85;;
72109;SDS011;59983;52.010;5.420;2022-11-21T02:25:05;46.35;;;26.88;;
72109;SDS011;59983;52.010;5.420;2022-11-21T02:27:33;40.53;;;28.17;;
72109;SDS011;59983;52.010;5.420;2022-11-21T02:30:00;46.15;;;26.45;;
72109;SDS011;59983;52.010;5.420;2022-11-21T02:32:33;44.15;;;27.88;;
72109;SDS011;59983;52.010;5.420;2022-11-21T02:35:04;42.53;;;26.10;;
72109;SDS011;59983;52.010;5.420;2022-11-21T02:37:32;45.33;;;25.58;;
72109;SDS011;59983;52.010;5.420;2022-11-21T02:40:00;40.53;;;27.00;;
72109;SDS011;59983;52.010;5.420;2022-11-21T02:42:41;44.03;;;26.63;;
72109;SDS011;59983;52.010;5.420;2022-11-21T02:45:25;41.08;;;26.80;;
72109;SDS011;59983;52.010;5.420;2022-11-21T02:48:14;40.57;;;24.07;;
72109;SDS011;59983;52.010;5.420;2022-11-21T02:50:41;46.67;;;24.25;;
72109;SDS011;59983;52.010;5.420;2022-11-21T02:53:13;46.42;;;25.92;;
72109;SDS011;59983;52.010;5.420;2022-11-21T02:55:41;41.67;;;22.27;;
72109;SDS011;59983;52.010;5.420;2022-11-21T02:58:08;44.13;;;23.77;;
72109;SDS011;59983;52.010;5.420;2022-11-21T03:00:36;43.03;;;24.07;;
72109;SDS011;59983;52.010;5.420;2022-11-21T03:03:04;44.20;;;23.67;;
72109;SDS011;59983;52.010;5.420;2022-11-21T03:05:31;48.75;;;23.55;;
72109;SDS011;59983;52.010;5.420;2022-11-21T03:07:58;44.05;;;24.17;;
72109;SDS011;59983;52.010;5.420;2022-11-21T03:10:24;35.05;;;24.52;;
72109;SDS011;59983;52.010;5.420;2022-11-21T03:12:51;40.00;;;24.77;;
72109;SDS011;59983;52.010;5.420;2022-11-21T03:15:30;43.70;;;22.35;;
72109;SDS011;59983;52.010;5.420;2022-11-21T03:17:58;38.65;;;23.05;;
72109;SDS011;59983;52.010;5.420;2022-11-21T03:20:28;36.03;;;23.67;;
72109;SDS011;59983;52.010;5.420;2022-11-21T03:22:56;42.92;;;24.38;;
72109;SDS011;59983;52.010;5.420;2022-11-21T03:25:22;43.10;;;22.30;;
72109;SDS011;59983;52.010;5.420;2022-11-21T03:27:49;44.03;;;23.48;;
72109;SDS011;59983;52.010;5.420;2022-11-21T03:30:18;43.00;;;24.23;;
72109;SDS011;59983;52.010;5.420;2022-11-21T03:32:46;49.85;;;22.25;;
72109;SDS011;59983;52.010;5.420;2022-11-21T03:35:12;37.28;;;23.80;;
72109;SDS011;59983;52.010;5.420;2022-11-21T03:37:40;37.93;;;22.80;;
72109;SDS011;59983;52.010;5.420;2022-11-21T03:40:06;60.08;;;23.83;;
72109;SDS011;59983;52.010;5.420;2022-11-21T03:42:33;66.75;;;26.00;;
72109;SDS011;59983;52.010;5.420;2022-11-21T03:45:00;55.47;;;22.55;;
72109;SDS011;59983;52.010;5.420;2022-11-21T03:47:26;37.92;;;22.77;;
72109;SDS011;59983;52.010;5.420;2022-11-21T03:49:52;35.60;;;22.17;;
72109;SDS011;59983;52.010;5.420;2022-11-21T03:52:19;46.50;;;22.45;;
72109;SDS011;59983;52.010;5.420;2022-11-21T03:54:46;51.78;;;23.30;;
72109;SDS011;59983;52.010;5.420;2022-11-21T03:57:12;75.50;;;22.30;;
72109;SDS011;59983;52.010;5.420;2022-11-21T03:59:39;56.42;;;24.77;;
72109;SDS011;59983;52.010;5.420;2022-11-21T04:02:05;44.40;;;22.97;;
72109;SDS011;59983;52.010;5.420;2022-11-21T04:04:31;43.55;;;23.23;;
72109;SDS011;59983;52.010;5.420;2022-11-21T04:06:58;42.63;;;23.70;;
72109;SDS011;59983;52.010;5.420;2022-11-21T04:09:25;38.17;;;25.08;;
72109;SDS011;59983;52.010;5.420;2022-11-21T04:11:51;78.90;;;24.23;;
72109;SDS011;59983;52.010;5.420;2022-11-21T04:14:17;81.57;;;24.67;;
72109;SDS011;59983;52.010;5.420;2022-11-21T04:16:44;50.75;;;24.23;;
72109;SDS011;59983;52.010;5.420;2022-11-21T04:19:10;50.53;;;24.65;;
72109;SDS011;59983;52.010;5.420;2022-11-21T04:21:37;47.53;;;25.98;;
72109;SDS011;59983;52.010;5.420;2022-11-21T04:24:03;58.65;;;26.70;;
72109;SDS011;59983;52.010;5.420;2022-11-21T04:26:30;45.63;;;24.37;;
72109;SDS011;59983;52.010;5.420;2022-11-21T04:28:56;58.60;;;23.55;;
72109;SDS011;59983;52.010;5.420;2022-11-21T04:31:23;63.83;;;24.58;;
72109;SDS011;59983;52.010;5.420;2022-11-21T04:33:49;45.13;;;24.50;;
72109;SDS011;59983;52.010;5.420;2022-11-21T04:36:16;38.42;;;23.33;;
72109;SDS011;59983;52.010;5.420;2022-11-21T04:38:43;39.37;;;23.17;;
72109;SDS011;59983;52.010;5.420;2022-11-21T04:41:09;41.40;;;21.50;;
72109;SDS011;59983;52.010;5.420;2022-11-21T04:43:36;37.22;;;24.40;;
72109;SDS011;59983;52.010;5.420;2022-11-21T04:46:02;48.05;;;24.63;;
72109;SDS011;59983;52.010;5.420;2022-11-21T04:48:29;47.28;;;24.58;;
72109;SDS011;59983;52.010;5.420;2022-11-21T04:50:57;41.30;;;23.20;;
72109;SDS011;59983;52.010;5.420;2022-11-21T04:53:24;68.47;;;25.80;;
72109;SDS011;59983;52.010;5.420;2022-11-21T04:55:50;50.85;;;24.92;;
72109;SDS011;59983;52.010;5.420;2022-11-21T04:58:17;40.10;;;23.15;;
72109;SDS011;59983;52.010;5.420;2022-11-21T05:00:43;38.88;;;23.50;;
72109;SDS011;59983;52.010;5.420;2022-11-21T05:03:09;42.77;;;22.93;;
72109;SDS011;59983;52.010;5.420;2022-11-21T05:05:36;47.25;;;23.15;;
72109;SDS011;59983;52.010;5.420;2022-11-21T05:08:03;58.65;;;25.38;;
72109;SDS011;59983;52.010;5.420;2022-11-21T05:10:29;41.20;;;22.42;;
72109;SDS011;59983;52.010;5.420;2022-11-21T05:12:59;38.78;;;23.05;;
72109;SDS011;59983;52.010;5.420;2022-11-21T05:15:44;47.63;;;24.73;;
72109;SDS011;59983;52.010;5.420;2022-11-21T05:18:11;51.70;;;24.05;;
72109;SDS011;59983;52.010;5.420;2022-11-21T05:20:37;47.88;;;23.83;;
72109;SDS011;59983;52.010;5.420;2022-11-21T05:23:04;41.80;;;23.30;;
72109;SDS011;59983;52.010;5.420;2022-11-21T05:25:30;47.17;;;26.30;;
72109;SDS011;59983;52.010;5.420;2022-11-21T05:27:57;43.63;;;23.77;;
72109;SDS011;59983;52.010;5.420;2022-11-21T05:30:23;41.72;;;24.58;;
72109;SDS011;59983;52.010;5.420;2022-11-21T05:32:50;52.15;;;25.42;;
72109;SDS011;59983;52.010;5.420;2022-11-21T05:35:18;48.83;;;24.60;;
72109;SDS011;59983;52.010;5.420;2022-11-21T05:37:44;49.97;;;24.48;;
72109;SDS011;59983;52.010;5.420;2022-11-21T05:40:11;41.50;;;23.07;;
72109;SDS011;59983;52.010;5.420;2022-11-21T05:42:43;48.78;;;25.20;;
72109;SDS011;59983;52.010;5.420;2022-11-21T05:45:28;48.72;;;26.60;;
72109;SDS011;59983;52.010;5.420;2022-11-21T05:47:54;53.03;;;27.13;;
72109;SDS011;59983;52.010;5.420;2022-11-21T05:50:21;54.42;;;26.90;;
72109;SDS011;59983;52.010;5.420;2022-11-21T05:52:47;50.07;;;26.03;;
72109;SDS011;59983;52.010;5.420;2022-11-21T05:55:14;48.03;;;25.88;;
72109;SDS011;59983;52.010;5.420;2022-11-21T05:57:40;57.30;;;27.00;;
72109;SDS011;59983;52.010;5.420;2022-11-21T06:00:07;55.53;;;26.58;;
72109;SDS011;59983;52.010;5.420;2022-11-21T06:02:34;44.45;;;25.85;;
72109;SDS011;59983;52.010;5.420;2022-11-21T06:05:19;48.33;;;26.67;;
72109;SDS011;59983;52.010;5.420;2022-11-21T06:07:46;47.20;;;23.98;;
72109;SDS011;59983;52.010;5.420;2022-11-21T06:10:12;53.05;;;25.02;;
72109;SDS011;59983;52.010;5.420;2022-11-21T06:12:39;42.33;;;24.25;;
72109;SDS011;59983;52.010;5.420;2022-11-21T06:15:05;54.25;;;23.55;;
72109;SDS011;59983;52.010;5.420;2022-11-21T06:17:32;41.70;;;22.67;;
72109;SDS011;59983;52.010;5.420;2022-11-21T06:19:58;51.30;;;23.58;;
72109;SDS011;59983;52.010;5.420;2022-11-21T06:22:25;44.47;;;25.15;;
72109;SDS011;59983;52.010;5.420;2022-11-21T06:24:51;58.38;;;26.35;;
72109;SDS011;59983;52.010;5.420;2022-11-21T06:27:18;53.65;;;27.05;;
72109;SDS011;59983;52.010;5.420;2022-11-21T06:29:44;48.17;;;25.53;;
72109;SDS011;59983;52.010;5.420;2022-11-21T06:32:11;44.40;;;22.55;;
72109;SDS011;59983;52.010;5.420;2022-11-21T06:34:37;42.13;;;24.55;;
72109;SDS011;59983;52.010;5.420;2022-11-21T06:37:04;50.22;;;26.23;;
72109;SDS011;59983;52.010;5.420;2022-11-21T06:39:30;48.78;;;26.50;;
72109;SDS011;59983;52.010;5.420;2022-11-21T06:41:57;44.33;;;24.73;;
72109;SDS011;59983;52.010;5.420;2022-11-21T06:44:24;46.97;;;24.15;;
72109;SDS011;59983;52.010;5.420;2022-11-21T06:46:51;47.05;;;23.70;;
72109;SDS011;59983;52.010;5.420;2022-11-21T06:49:17;39.83;;;22.88;;
72109;SDS011;59983;52.010;5.420;2022-11-21T06:51:44;42.83;;;23.73;;
72109;SDS011;59983;52.010;5.420;2022-11-21T06:54:10;37.97;;;22.77;;
72109;SDS011;59983;52.010;5.420;2022-11-21T06:56:53;45.67;;;23.67;;
72109;SDS011;59983;52.010;5.420;2022-11-21T06:59:20;37.53;;;22.88;;
72109;SDS011;59983;52.010;5.420;2022-11-21T07:01:47;37.35;;;21.35;;
72109;SDS011;59983;52.010;5.420;2022-11-21T07:04:13;32.42;;;22.73;;
72109;SDS011;59983;52.010;5.420;2022-11-21T07:06:40;35.73;;;19.63;;
72109;SDS011;59983;52.010;5.420;2022-11-21T07:09:06;33.05;;;20.90;;
72109;SDS011;59983;52.010;5.420;2022-11-21T07:11:53;38.72;;;21.50;;
72109;SDS011;59983;52.010;5.420;2022-11-21T07:14:20;36.83;;;22.83;;
72109;SDS011;59983;52.010;5.420;2022-11-21T07:16:46;41.38;;;22.70;;
72109;SDS011;59983;52.010;5.420;2022-11-21T07:19:12;45.70;;;22.80;;
72109;SDS011;59983;52.010;5.420;2022-11-21T07:21:39;48.20;;;24.52;;
72109;SDS011;59983;52.010;5.420;2022-11-21T07:24:05;39.83;;;24.23;;
72109;SDS011;59983;52.010;5.420;2022-11-21T07:26:32;42.22;;;23.45;;
72109;SDS011;59983;52.010;5.420;2022-11-21T07:28:58;56.17;;;27.15;;
72109;SDS011;59983;52.010;5.420;2022-11-21T07:31:25;45.43;;;23.83;;
72109;SDS011;59983;52.010;5.420;2022-11-21T07:33:51;43.10;;;24.05;;
72109;SDS011;59983;52.010;5.420;2022-11-21T07:36:18;46.05;;;25.00;;
72109;SDS011;59983;52.010;5.420;2022-11-21T07:38:45;42.22;;;22.10;;
72109;SDS011;59983;52.010;5.420;2022-11-21T07:41:12;46.10;;;24.90;;
72109;SDS011;59983;52.010;5.420;2022-11-21T07:43:38;48.70;;;24.00;;
72109;SDS011;59983;52.010;5.420;2022-11-21T07:46:05;44.28;;;23.63;;
72109;SDS011;59983;52.010;5.420;2022-11-21T07:48:31;47.88;;;24.42;;
72109;SDS011;59983;52.010;5.420;2022-11-21T07:50:58;47.05;;;23.75;;
72109;SDS011;59983;52.010;5.420;2022-11-21T07:53:24;40.72;;;24.67;;
72109;SDS011;59983;52.010;5.420;2022-11-21T07:55:50;43.33;;;22.80;;
72109;SDS011;59983;52.010;5.420;2022-11-21T07:58:17;42.72;;;23.27;;
72109;SDS011;59983;52.010;5.420;2022-11-21T08:00:44;49.55;;;26.52;;
72109;SDS011;59983;52.010;5.420;2022-11-21T08:03:11;39.47;;;23.73;;
72109;SDS011;59983;52.010;5.420;2022-11-21T08:05:39;48.85;;;25.42;;
72109;SDS011;59983;52.010;5.420;2022-11-21T08:08:07;52.40;;;23.87;;
72109;SDS011;59983;52.010;5.420;2022-11-21T08:10:40;55.60;;;24.67;;
72109;SDS011;59983;52.010;5.420;2022-11-21T08:13:08;54.92;;;25.67;;
72109;SDS011;59983;52.010;5.420;2022-11-21T08:15:35;58.08;;;26.25;;
72109;SDS011;59983;52.010;5.420;2022-11-21T08:18:11;46.10;;;23.30;;
72109;SDS011;59983;52.010;5.420;2022-11-21T08:20:40;57.07;;;25.00;;
72109;SDS011;59983;52.010;5.420;2022-11-21T08:23:07;56.92;;;26.48;;
72109;SDS011;59983;52.010;5.420;2022-11-21T08:25:39;61.40;;;27.67;;
72109;SDS011;59983;52.010;5.420;2022-11-21T08:28:07;52.85;;;24.80;;
72109;SDS011;59983;52.010;5.420;2022-11-21T08:30:35;60.72;;;26.35;;
72109;SDS011;59983;52.010;5.420;2022-11-21T08:33:02;65.77;;;27.90;;
72109;SDS011;59983;52.010;5.420;2022-11-21T08:35:29;57.65;;;25.90;;
72109;SDS011;59983;52.010;5.420;2022-11-21T08:37:59;62.33;;;26.38;;
72109;SDS011;59983;52.010;5.420;2022-11-21T08:40:27;51.97;;;26.35;;
72109;SDS011;59983;52.010;5.420;2022-11-21T08:42:56;60.85;;;27.92;;
72109;SDS011;59983;52.010;5.420;2022-11-21T08:45:33;63.50;;;27.00;;
72109;SDS011;59983;52.010;5.420;2022-11-21T08:48:01;53.17;;;24.70;;
72109;SDS011;59983;52.010;5.420;2022-11-21T08:50:27;56.17;;;25.40;;
72109;SDS011;59983;52.010;5.420;2022-11-21T08:53:00;42.92;;;23.63;;
72109;SDS011;59983;52.010;5.420;2022-11-21T08:55:27;51.85;;;24.60;;
72109;SDS011;59983;52.010;5.420;2022-11-21T08:57:54;44.77;;;23.63;;
72109;SDS011;59983;52.010;5.420;2022-11-21T09:00:21;39.90;;;22.63;;
72109;SDS011;59983;52.010;5.420;2022-11-21T09:02:47;49.22;;;23.90;;
72109;SDS011;59983;52.010;5.420;2022-11-21T09:05:14;36.58;;;20.98;;
72109;SDS011;59983;52.010;5.420;2022-11-21T09:07:40;32.80;;;22.17;;
72109;SDS011;59983;52.010;5.420;2022-11-21T09:10:07;38.83;;;22.90;;
72109;SDS011;59983;52.010;5.420;2022-11-21T09:12:34;39.47;;;21.15;;
72109;SDS011;59983;52.010;5.420;2022-11-21T09:15:00;36.72;;;22.55;;
72109;SDS011;59983;52.010;5.420;2022-11-21T09:17:45;33.13;;;21.35;;
72109;SDS011;59983;52.010;5.420;2022-11-21T09:20:30;33.65;;;21.08;;
72109;SDS011;59983;52.010;5.420;2022-11-21T09:23:03;42.50;;;23.03;;
72109;SDS011;59983;52.010;5.420;2022-11-21T09:25:31;38.15;;;20.75;;
72109;SDS011;59983;52.010;5.420;2022-11-21T09:27:58;43.85;;;24.25;;
72109;SDS011;59983;52.010;5.420;2022-11-21T09:30:26;37.85;;;21.08;;
72109;SDS011;59983;52.010;5.420;2022-11-21T09:32:52;36.03;;;21.95;;
72109;SDS011;59983;52.010;5.420;2022-11-21T09:35:19;33.47;;;20.80;;
72109;SDS011;59983;52.010;5.420;2022-11-21T09:37:46;34.03;;;19.50;;
72109;SDS011;59983;52.010;5.420;2022-11-21T09:40:14;34.42;;;21.85;;
72109;SDS011;59983;52.010;5.420;2022-11-21T09:42:48;39.85;;;21.70;;
72109;SDS011;59983;52.010;5.420;2022-11-21T09:45:39;43.00;;;22.50;;
72109;SDS011;59983;52.010;5.420;2022-11-21T09:48:13;38.37;;;21.80;;
72109;SDS011;59983;52.010;5.420;2022-11-21T09:50:52;45.72;;;23.77;;
72109;SDS011;59983;52.010;5.420;2022-11-21T09:56:03;38.72;;;23.30;;
72109;SDS011;59983;52.010;5.420;2022-11-21T09:58:36;41.00;;;23.02;;
72109;SDS011;59983;52.010;5.420;2022-11-21T10:01:14;39.37;;;21.50;;
72109;SDS011;59983;52.010;5.420;2022-11-21T10:03:48;40.17;;;21.95;;
72109;SDS011;59983;52.010;5.420;2022-11-21T10:17:13;40.15;;;23.42;;
72109;SDS011;59983;52.010;5.420;2022-11-21T10:22:41;39.25;;;23.83;;
72109;SDS011;59983;52.010;5.420;2022-11-21T10:25:12;41.38;;;24.25;;
72109;SDS011;59983;52.010;5.420;2022-11-21T10:27:51;40.33;;;24.53;;
72109;SDS011;59983;52.010;5.420;2022-11-21T10:30:22;38.15;;;22.75;;
72109;SDS011;59983;52.010;5.420;2022-11-21T10:32:50;40.50;;;23.90;;
72109;SDS011;59983;52.010;5.420;2022-11-21T10:35:24;38.72;;;25.85;;
72109;SDS011;59983;52.010;5.420;2022-11-21T10:38:00;36.80;;;24.77;;
72109;SDS011;59983;52.010;5.420;2022-11-21T10:40:36;38.30;;;24.27;;
72109;SDS011;59983;52.010;5.420;2022-11-21T10:43:08;38.58;;;23.27;;
72109;SDS011;59983;52.010;5.420;2022-11-21T10:46:00;35.67;;;23.48;;
72109;SDS011;59983;52.010;5.420;2022-11-21T10:48:27;33.22;;;21.10;;
72109;SDS011;59983;52.010;5.420;2022-11-21T10:51:37;34.10;;;23.70;;
72109;SDS011;59983;52.010;5.420;2022-11-21T10:54:01;32.30;;;23.63;;
72109;SDS011;59983;52.010;5.420;2022-11-21T10:56:51;34.35;;;21.98;;
72109;SDS011;59983;52.010;5.420;2022-11-21T10:59:23;41.72;;;23.35;;
72109;SDS011;59983;52.010;5.420;2022-11-21T11:02:39;35.30;;;22.70;;
72109;SDS011;59983;52.010;5.420;2022-11-21T11:04:48;38.30;;;23.98;;
72109;SDS011;59983;52.010;5.420;2022-11-21T11:07:22;31.93;;;22.40;;
72109;SDS011;59983;52.010;5.420;2022-11-21T11:09:51;33.75;;;23.13;;
72109;SDS011;59983;52.010;5.420;2022-11-21T11:12:38;30.98;;;22.63;;
72109;SDS011;59983;52.010;5.420;2022-11-21T11:15:27;31.90;;;21.33;;
72109;SDS011;59983;52.010;5.420;2022-11-21T11:17:57;30.83;;;22.23;;
72109;SDS011;59983;52.010;5.420;2022-11-21T11:20:38;32.87;;;21.57;;
72109;SDS011;59983;52.010;5.420;2022-11-21T11:25:46;30.10;;;20.98;;
72109;SDS011;59983;52.010;5.420;2022-11-21T11:28:14;27.05;;;20.67;;
72109;SDS011;59983;52.010;5.420;2022-11-21T11:30:41;25.23;;;21.27;;
72109;SDS011;59983;52.010;5.420;2022-11-21T11:38:54;16.20;;;14.00;;
72109;SDS011;59983;52.010;5.420;2022-11-21T11:47:52;15.07;;;12.10;;
72109;SDS011;59983;52.010;5.420;2022-11-21T11:53:16;14.30;;;12.20;;
72109;SDS011;59983;52.010;5.420;2022-11-21T12:00:55;10.53;;;9.73;;
72109;SDS011;59983;52.010;5.420;2022-11-21T12:06:20;11.60;;;10.52;;
72109;SDS011;59983;52.010;5.420;2022-11-21T12:09:22;10.98;;;8.82;;
72109;SDS011;59983;52.010;5.420;2022-11-21T12:12:01;10.13;;;9.20;;
72109;SDS011;59983;52.010;5.420;2022-11-21T12:17:50;8.75;;;7.85;;
72109;SDS011;59983;52.010;5.420;2022-11-21T12:23:02;9.90;;;8.05;;
72109;SDS011;59983;52.010;5.420;2022-11-21T12:25:34;15.43;;;8.93;;
72109;SDS011;59983;52.010;5.420;2022-11-21T12:28:08;10.60;;;6.67;;
72109;SDS011;59983;52.010;5.420;2022-11-21T12:31:34;8.13;;;7.40;;
72109;SDS011;59983;52.010;5.420;2022-11-21T12:34:03;9.63;;;8.05;;
72109;SDS011;59983;52.010;5.420;2022-11-21T12:36:58;10.63;;;7.35;;
72109;SDS011;59983;52.010;5.420;2022-11-21T12:39:38;8.30;;;7.63;;
72109;SDS011;59983;52.010;5.420;2022-11-21T12:42:45;8.17;;;7.43;;
72109;SDS011;59983;52.010;5.420;2022-11-21T12:45:24;10.55;;;9.40;;
72109;SDS011;59983;52.010;5.420;2022-11-21T12:48:12;13.68;;;8.55;;
72109;SDS011;59983;52.010;5.420;2022-11-21T12:54:39;12.50;;;8.57;;
72109;SDS011;59983;52.010;5.420;2022-11-21T13:00:22;11.27;;;6.88;;
72109;SDS011;59983;52.010;5.420;2022-11-21T13:05:35;10.50;;;7.10;;
72109;SDS011;59983;52.010;5.420;2022-11-21T13:08:10;7.90;;;6.70;;
72109;SDS011;59983;52.010;5.420;2022-11-21T13:16:49;8.35;;;7.47;;
72109;SDS011;59983;52.010;5.420;2022-11-21T13:21:57;8.80;;;8.00;;
72109;SDS011;59983;52.010;5.420;2022-11-21T13:27:35;18.60;;;10.85;;
72109;SDS011;59983;52.010;5.420;2022-11-21T13:32:36;9.95;;;8.57;;
72109;SDS011;59983;52.010;5.420;2022-11-21T13:37:59;11.63;;;8.40;;
72109;SDS011;59983;52.010;5.420;2022-11-21T13:40:34;8.32;;;7.55;;
72109;SDS011;59983;52.010;5.420;2022-11-21T13:45:56;9.40;;;8.40;;
72109;SDS011;59983;52.010;5.420;2022-11-21T14:08:05;10.02;;;8.30;;
72109;SDS011;59983;52.010;5.420;2022-11-21T14:10:38;14.07;;;8.63;;
72109;SDS011;59983;52.010;5.420;2022-11-21T14:13:04;9.65;;;8.68;;
72109;SDS011;59983;52.010;5.420;2022-11-21T14:15:34;9.25;;;8.18;;
72109;SDS011;59983;52.010;5.420;2022-11-21T14:18:11;10.50;;;7.87;;
72109;SDS011;59983;52.010;5.420;2022-11-21T14:23:16;8.52;;;7.70;;
72109;SDS011;59983;52.010;5.420;2022-11-21T14:25:46;10.18;;;9.23;;
72109;SDS011;59983;52.010;5.420;2022-11-21T14:28:29;8.95;;;8.05;;
72109;SDS011;59983;52.010;5.420;2022-11-21T14:31:04;11.10;;;8.43;;
72109;SDS011;59983;52.010;5.420;2022-11-21T14:33:33;10.55;;;8.18;;
72109;SDS011;59983;52.010;5.420;2022-11-21T14:41:33;9.02;;;8.23;;
72109;SDS011;59983;52.010;5.420;2022-11-21T14:44:03;12.57;;;7.93;;
72109;SDS011;59983;52.010;5.420;2022-11-21T14:46:35;10.18;;;9.10;;
72109;SDS011;59983;52.010;5.420;2022-11-21T14:49:16;9.50;;;8.63;;
72109;SDS011;59983;52.010;5.420;2022-11-21T14:54:25;9.85;;;8.35;;
72109;SDS011;59983;52.010;5.420;2022-11-21T14:57:02;9.67;;;8.77;;
72109;SDS011;59983;52.010;5.420;2022-11-21T14:59:39;9.88;;;9.02;;
72109;SDS011;59983;52.010;5.420;2022-11-21T15:02:10;9.90;;;9.00;;
72109;SDS011;59983;52.010;5.420;2022-11-21T15:04:40;8.32;;;7.38;;
72109;SDS011;59983;52.010;5.420;2022-11-21T15:07:24;9.50;;;7.82;;
72109;SDS011;59983;52.010;5.420;2022-11-21T15:09:57;8.23;;;7.43;;
72109;SDS011;59983;52.010;5.420;2022-11-21T15:12:56;12.10;;;8.82;;
72109;SDS011;59983;52.010;5.420;2022-11-21T15:18:00;14.35;;;12.80;;
72109;SDS011;59983;52.010;5.420;2022-11-21T15:20:53;14.27;;;10.73;;
72109;SDS011;59983;52.010;5.420;2022-11-21T15:26:03;12.77;;;9.55;;
72109;SDS011;59983;52.010;5.420;2022-11-21T15:28:30;10.90;;;8.93;;
72109;SDS011;59983;52.010;5.420;2022-11-21T15:31:15;9.10;;;8.20;;
72109;SDS011;59983;52.010;5.420;2022-11-21T15:33:56;10.40;;;8.25;;
72109;SDS011;59983;52.010;5.420;2022-11-21T15:36:59;9.00;;;8.30;;
72109;SDS011;59983;52.010;5.420;2022-11-21T15:39:29;9.38;;;8.35;;
72109;SDS011;59983;52.010;5.420;2022-11-21T15:42:26;9.73;;;8.60;;
72109;SDS011;59983;52.010;5.420;2022-11-21T15:47:24;22.25;;;12.88;;
72109;SDS011;59983;52.010;5.420;2022-11-21T15:49:50;14.30;;;9.60;;
72109;SDS011;59983;52.010;5.420;2022-11-21T15:52:17;9.68;;;8.85;;
72109;SDS011;59983;52.010;5.420;2022-11-21T15:54:43;10.57;;;9.65;;
72109;SDS011;59983;52.010;5.420;2022-11-21T15:57:10;10.25;;;8.35;;
72109;SDS011;59983;52.010;5.420;2022-11-21T15:59:37;11.90;;;10.88;;
72109;SDS011;59983;52.010;5.420;2022-11-21T16:02:03;13.17;;;12.07;;
72109;SDS011;59983;52.010;5.420;2022-11-21T16:04:30;10.25;;;9.25;;
72109;SDS011;59983;52.010;5.420;2022-11-21T16:06:57;14.10;;;12.88;;
72109;SDS011;59983;52.010;5.420;2022-11-21T16:09:23;13.90;;;9.88;;
72109;SDS011;59983;52.010;5.420;2022-11-21T16:11:50;9.55;;;8.70;;
72109;SDS011;59983;52.010;5.420;2022-11-21T16:14:16;11.53;;;8.63;;
72109;SDS011;59983;52.010;5.420;2022-11-21T16:16:45;9.77;;;8.82;;
72109;SDS011;59983;52.010;5.420;2022-11-21T16:19:13;12.35;;;10.65;;
72109;SDS011;59983;52.010;5.420;2022-11-21T16:21:40;10.18;;;8.85;;
72109;SDS011;59983;52.010;5.420;2022-11-21T16:24:07;13.95;;;10.25;;
72109;SDS011;59983;52.010;5.420;2022-11-21T16:26:34;13.70;;;12.50;;
72109;SDS011;59983;52.010;5.420;2022-11-21T16:29:00;9.88;;;8.98;;
72109;SDS011;59983;52.010;5.420;2022-11-21T16:31:31;9.43;;;8.52;;
72109;SDS011;59983;52.010;5.420;2022-11-21T16:33:57;10.48;;;9.63;;
72109;SDS011;59983;52.010;5.420;2022-11-21T16:36:26;12.98;;;10.60;;
72109;SDS011;59983;52.010;5.420;2022-11-21T16:38:54;11.07;;;8.10;;
72109;SDS011;59983;52.010;5.420;2022-11-21T16:41:28;10.57;;;8.50;;
72109;SDS011;59983;52.010;5.420;2022-11-21T16:43:55;13.57;;;7.95;;
72109;SDS011;59983;52.010;5.420;2022-11-21T16:46:22;12.38;;;8.23;;
72109;SDS011;59983;52.010;5.420;2022-11-21T16:49:00;10.93;;;9.32;;
72109;SDS011;59983;52.010;5.420;2022-11-21T16:51:28;10.53;;;9.50;;